sensor_id;sensor_type;location;lat;lon;timestamp;temperature;humidity
4695;DHT22;2361;49.540;8.390;2022-10-31T00:01:31;14.40;99.90
4695;DHT22;2361;49.540;8.390;2022-10-31T00:04:00;14.40;99.90
4695;DHT22;2361;49.540;8.390;2022-10-31T00:06:27;14.40;99.90
4695;DHT22;2361;49.540;8.390;2022-10-31T00:08:59;14.30;99.90
4695;DHT22;2361;49.540;8.390;2022-10-31T00:11:27;14.30;99.90
4695;DHT22;2361;49.540;8.390;2022-10-31T00:13:54;14.30;99.90
4695;DHT22;2361;49.540;8.390;2022-10-31T00:16:23;14.20;99.90
4695;DHT22;2361;49.540;8.390;2022-10-31T00:18:52;14.30;99.90
4695;DHT22;2361;49.540;8.390;2022-10-31T00:21:21;14.20;99.90
4695;DHT22;2361;49.540;8.390;2022-10-31T00:23:48;14.20;99.90
4695;DHT22;2361;49.540;8.390;2022-10-31T00:26:16;14.20;99.90
4695;DHT22;2361;49.540;8.390;2022-10-31T00:28:43;14.10;99.90
4695;DHT22;2361;49.540;8.390;2022-10-31T00:31:12;14.20;99.90
4695;DHT22;2361;49.540;8.390;2022-10-31T00:33:39;14.10;99.90
4695;DHT22;2361;49.540;8.390;2022-10-31T00:36:10;14.10;99.90
4695;DHT22;2361;49.540;8.390;2022-10-31T00:38:39;14.00;99.90
4695;DHT22;2361;49.540;8.390;2022-10-31T00:41:11;14.00;99.90
4695;DHT22;2361;49.540;8.390;2022-10-31T00:43:39;14.10;99.90
4695;DHT22;2361;49.540;8.390;2022-10-31T00:46:06;14.00;99.90
4695;DHT22;2361;49.540;8.390;2022-10-31T00:48:33;14.00;99.90
4695;DHT22;2361;49.540;8.390;2022-10-31T00:51:00;14.00;99.90
4695;DHT22;2361;49.540;8.390;2022-10-31T00:53:27;14.00;99.90
4695;DHT22;2361;49.540;8.390;2022-10-31T00:55:54;14.00;99.90
4695;DHT22;2361;49.540;8.390;2022-10-31T00:58:21;14.00;99.90
4695;DHT22;2361;49.540;8.390;2022-10-31T01:00:48;14.00;99.90
4695;DHT22;2361;49.540;8.390;2022-10-31T01:03:29;14.00;99.90
4695;DHT22;2361;49.540;8.390;2022-10-31T01:06:06;14.00;99.90
4695;DHT22;2361;49.540;8.390;2022-10-31T01:08:36;13.90;99.90
4695;DHT22;2361;49.540;8.390;2022-10-31T01:13:38;13.90;99.90
4695;DHT22;2361;49.540;8.390;2022-10-31T01:16:06;13.90;99.90
4695;DHT22;2361;49.540;8.390;2022-10-31T01:18:36;13.90;99.90
4695;DHT22;2361;49.540;8.390;2022-10-31T01:21:08;13.90;99.90
4695;DHT22;2361;49.540;8.390;2022-10-31T01:23:39;13.90;99.90
4695;DHT22;2361;49.540;8.390;2022-10-31T01:26:10;13.90;99.90
4695;DHT22;2361;49.540;8.390;2022-10-31T01:28:46;13.90;99.90
4695;DHT22;2361;49.540;8.390;2022-10-31T01:31:20;13.90;99.90
4695;DHT22;2361;49.540;8.390;2022-10-31T01:33:49;13.90;99.90
4695;DHT22;2361;49.540;8.390;2022-10-31T01:36:20;13.90;99.90
4695;DHT22;2361;49.540;8.390;2022-10-31T01:38:52;14.00;99.90
4695;DHT22;2361;49.540;8.390;2022-10-31T01:41:23;13.90;99.90
4695;DHT22;2361;49.540;8.390;2022-10-31T01:44:01;13.90;99.90
4695;DHT22;2361;49.540;8.390;2022-10-31T01:49:53;13.90;99.90
4695;DHT22;2361;49.540;8.390;2022-10-31T01:57:46;14.00;99.90
4695;DHT22;2361;49.540;8.390;2022-10-31T02:00:15;14.00;99.90
4695;DHT22;2361;49.540;8.390;2022-10-31T02:02:43;14.00;99.90
4695;DHT22;2361;49.540;8.390;2022-10-31T02:05:14;14.10;99.90
4695;DHT22;2361;49.540;8.390;2022-10-31T02:10:50;14.10;99.90
4695;DHT22;2361;49.540;8.390;2022-10-31T02:13:19;14.00;99.90
4695;DHT22;2361;49.540;8.390;2022-10-31T02:15:51;14.00;99.90
4695;DHT22;2361;49.540;8.390;2022-10-31T02:18:20;14.00;99.90
4695;DHT22;2361;49.540;8.390;2022-10-31T02:21:00;14.10;99.90
4695;DHT22;2361;49.540;8.390;2022-10-31T02:23:52;14.10;99.90
4695;DHT22;2361;49.540;8.390;2022-10-31T02:30:09;14.10;99.90
4695;DHT22;2361;49.540;8.390;2022-10-31T02:32:54;14.00;99.90
4695;DHT22;2361;49.540;8.390;2022-10-31T02:36:03;14.00;99.90
4695;DHT22;2361;49.540;8.390;2022-10-31T02:44:34;13.90;99.90
4695;DHT22;2361;49.540;8.390;2022-10-31T02:47:12;13.90;99.90
4695;DHT22;2361;49.540;8.390;2022-10-31T02:49:59;13.80;99.90
4695;DHT22;2361;49.540;8.390;2022-10-31T02:52:31;13.80;99.90
4695;DHT22;2361;49.540;8.390;2022-10-31T02:55:40;13.70;99.90
4695;DHT22;2361;49.540;8.390;2022-10-31T02:58:08;13.70;99.90
4695;DHT22;2361;49.540;8.390;2022-10-31T03:06:39;13.70;99.90
4695;DHT22;2361;49.540;8.390;2022-10-31T03:20:55;13.50;99.90
4695;DHT22;2361;49.540;8.390;2022-10-31T03:23:26;13.50;99.90
4695;DHT22;2361;49.540;8.390;2022-10-31T03:25:54;13.40;99.90
4695;DHT22;2361;49.540;8.390;2022-10-31T03:28:28;13.40;99.90
4695;DHT22;2361;49.540;8.390;2022-10-31T03:30:56;13.40;99.90
4695;DHT22;2361;49.540;8.390;2022-10-31T03:33:31;13.40;99.90
4695;DHT22;2361;49.540;8.390;2022-10-31T03:36:01;13.40;99.90
4695;DHT22;2361;49.540;8.390;2022-10-31T03:38:31;13.40;99.90
4695;DHT22;2361;49.540;8.390;2022-10-31T03:41:03;13.40;99.90
4695;DHT22;2361;49.540;8.390;2022-10-31T03:43:37;13.40;99.90
4695;DHT22;2361;49.540;8.390;2022-10-31T03:46:08;13.30;99.90
4695;DHT22;2361;49.540;8.390;2022-10-31T03:48:35;13.30;99.90
4695;DHT22;2361;49.540;8.390;2022-10-31T03:51:16;13.20;99.90
4695;DHT22;2361;49.540;8.390;2022-10-31T03:54:04;13.20;99.90
4695;DHT22;2361;49.540;8.390;2022-10-31T03:56:51;13.30;99.90
4695;DHT22;2361;49.540;8.390;2022-10-31T03:59:22;13.30;99.90
4695;DHT22;2361;49.540;8.390;2022-10-31T04:01:55;13.30;99.90
4695;DHT22;2361;49.540;8.390;2022-10-31T04:04:26;13.20;99.90
4695;DHT22;2361;49.540;8.390;2022-10-31T04:06:54;13.30;99.90
4695;DHT22;2361;49.540;8.390;2022-10-31T04:09:24;13.30;99.90
4695;DHT22;2361;49.540;8.390;2022-10-31T04:11:54;13.30;99.90
4695;DHT22;2361;49.540;8.390;2022-10-31T04:14:24;13.30;99.90
4695;DHT22;2361;49.540;8.390;2022-10-31T04:16:53;13.20;99.90
4695;DHT22;2361;49.540;8.390;2022-10-31T04:19:20;13.20;99.90
4695;DHT22;2361;49.540;8.390;2022-10-31T04:21:47;13.20;99.90
4695;DHT22;2361;49.540;8.390;2022-10-31T04:24:14;13.20;99.90
4695;DHT22;2361;49.540;8.390;2022-10-31T04:26:41;13.20;99.90
4695;DHT22;2361;49.540;8.390;2022-10-31T04:29:10;13.20;99.90
4695;DHT22;2361;49.540;8.390;2022-10-31T04:31:37;13.30;99.90
4695;DHT22;2361;49.540;8.390;2022-10-31T04:34:04;13.30;99.90
4695;DHT22;2361;49.540;8.390;2022-10-31T04:36:31;13.20;99.90
4695;DHT22;2361;49.540;8.390;2022-10-31T04:38:58;13.20;99.90
4695;DHT22;2361;49.540;8.390;2022-10-31T04:41:25;13.20;99.90
4695;DHT22;2361;49.540;8.390;2022-10-31T04:43:52;13.20;99.90
4695;DHT22;2361;49.540;8.390;2022-10-31T04:46:19;13.20;99.90
4695;DHT22;2361;49.540;8.390;2022-10-31T04:48:46;13.20;99.90
4695;DHT22;2361;49.540;8.390;2022-10-31T04:51:12;13.20;99.90
4695;DHT22;2361;49.540;8.390;2022-10-31T04:53:39;13.20;99.90
4695;DHT22;2361;49.540;8.390;2022-10-31T04:56:06;13.10;99.90
4695;DHT22;2361;49.540;8.390;2022-10-31T04:58:33;13.10;99.90
4695;DHT22;2361;49.540;8.390;2022-10-31T05:01:00;13.10;99.90
4695;DHT22;2361;49.540;8.390;2022-10-31T05:03:27;13.00;99.90
4695;DHT22;2361;49.540;8.390;2022-10-31T05:05:54;13.00;99.90
4695;DHT22;2361;49.540;8.390;2022-10-31T05:08:21;13.00;99.90
4695;DHT22;2361;49.540;8.390;2022-10-31T05:10:48;12.90;99.90
4695;DHT22;2361;49.540;8.390;2022-10-31T05:13:14;12.90;99.90
4695;DHT22;2361;49.540;8.390;2022-10-31T05:15:41;12.90;99.90
4695;DHT22;2361;49.540;8.390;2022-10-31T05:18:08;12.90;99.90
4695;DHT22;2361;49.540;8.390;2022-10-31T05:20:35;13.00;99.90
4695;DHT22;2361;49.540;8.390;2022-10-31T05:23:02;13.00;99.90
4695;DHT22;2361;49.540;8.390;2022-10-31T05:25:29;12.90;99.90
4695;DHT22;2361;49.540;8.390;2022-10-31T05:27:56;12.80;99.90
4695;DHT22;2361;49.540;8.390;2022-10-31T05:30:26;12.90;99.90
4695;DHT22;2361;49.540;8.390;2022-10-31T05:32:56;12.80;99.90
4695;DHT22;2361;49.540;8.390;2022-10-31T05:35:29;12.70;99.90
4695;DHT22;2361;49.540;8.390;2022-10-31T05:37:58;12.70;99.90
4695;DHT22;2361;49.540;8.390;2022-10-31T05:40:26;12.70;99.90
4695;DHT22;2361;49.540;8.390;2022-10-31T05:42:55;12.70;99.90
4695;DHT22;2361;49.540;8.390;2022-10-31T05:45:23;12.70;99.90
4695;DHT22;2361;49.540;8.390;2022-10-31T05:48:00;12.80;99.90
4695;DHT22;2361;49.540;8.390;2022-10-31T05:50:30;12.70;99.90
4695;DHT22;2361;49.540;8.390;2022-10-31T05:53:03;12.70;99.90
4695;DHT22;2361;49.540;8.390;2022-10-31T05:55:31;12.60;99.90
4695;DHT22;2361;49.540;8.390;2022-10-31T05:57:59;12.70;99.90
4695;DHT22;2361;49.540;8.390;2022-10-31T06:00:27;12.60;99.90
4695;DHT22;2361;49.540;8.390;2022-10-31T06:03:01;12.60;99.90
4695;DHT22;2361;49.540;8.390;2022-10-31T06:05:32;12.60;99.90
4695;DHT22;2361;49.540;8.390;2022-10-31T06:07:59;12.50;99.90
4695;DHT22;2361;49.540;8.390;2022-10-31T06:10:27;12.50;99.90
4695;DHT22;2361;49.540;8.390;2022-10-31T06:12:55;12.60;99.90
4695;DHT22;2361;49.540;8.390;2022-10-31T06:15:22;12.60;99.90
4695;DHT22;2361;49.540;8.390;2022-10-31T06:18:04;12.60;99.90
4695;DHT22;2361;49.540;8.390;2022-10-31T06:20:33;12.70;99.90
4695;DHT22;2361;49.540;8.390;2022-10-31T06:23:00;12.70;99.90
4695;DHT22;2361;49.540;8.390;2022-10-31T06:25:30;12.80;99.90
4695;DHT22;2361;49.540;8.390;2022-10-31T06:27:57;12.90;99.90
4695;DHT22;2361;49.540;8.390;2022-10-31T06:30:24;13.00;99.90
4695;DHT22;2361;49.540;8.390;2022-10-31T06:32:52;13.10;99.90
4695;DHT22;2361;49.540;8.390;2022-10-31T06:35:19;13.10;99.90
4695;DHT22;2361;49.540;8.390;2022-10-31T06:37:53;13.20;99.90
4695;DHT22;2361;49.540;8.390;2022-10-31T06:40:20;13.40;99.90
4695;DHT22;2361;49.540;8.390;2022-10-31T06:42:47;13.50;99.90
4695;DHT22;2361;49.540;8.390;2022-10-31T06:45:14;13.80;99.90
4695;DHT22;2361;49.540;8.390;2022-10-31T06:47:41;14.00;99.90
4695;DHT22;2361;49.540;8.390;2022-10-31T06:50:28;14.20;99.90
4695;DHT22;2361;49.540;8.390;2022-10-31T06:52:56;14.30;99.90
4695;DHT22;2361;49.540;8.390;2022-10-31T06:55:25;14.40;99.90
4695;DHT22;2361;49.540;8.390;2022-10-31T06:57:54;14.50;99.90
4695;DHT22;2361;49.540;8.390;2022-10-31T07:00:27;14.60;99.90
4695;DHT22;2361;49.540;8.390;2022-10-31T07:03:06;14.70;99.90
4695;DHT22;2361;49.540;8.390;2022-10-31T07:05:35;14.80;99.90
4695;DHT22;2361;49.540;8.390;2022-10-31T07:08:06;15.00;99.90
4695;DHT22;2361;49.540;8.390;2022-10-31T07:10:36;15.30;99.90
4695;DHT22;2361;49.540;8.390;2022-10-31T07:13:13;15.70;99.90
4695;DHT22;2361;49.540;8.390;2022-10-31T07:15:42;16.10;99.90
4695;DHT22;2361;49.540;8.390;2022-10-31T07:18:11;16.50;99.90
4695;DHT22;2361;49.540;8.390;2022-10-31T07:20:38;16.70;99.90
4695;DHT22;2361;49.540;8.390;2022-10-31T07:23:05;16.80;99.90
4695;DHT22;2361;49.540;8.390;2022-10-31T07:25:32;16.90;99.90
4695;DHT22;2361;49.540;8.390;2022-10-31T07:27:59;17.10;99.90
4695;DHT22;2361;49.540;8.390;2022-10-31T07:30:26;17.40;99.90
4695;DHT22;2361;49.540;8.390;2022-10-31T07:32:54;17.70;99.90
4695;DHT22;2361;49.540;8.390;2022-10-31T07:35:26;18.20;99.90
4695;DHT22;2361;49.540;8.390;2022-10-31T07:37:54;18.80;99.90
4695;DHT22;2361;49.540;8.390;2022-10-31T07:40:22;19.40;99.90
4695;DHT22;2361;49.540;8.390;2022-10-31T07:42:51;19.80;99.90
4695;DHT22;2361;49.540;8.390;2022-10-31T07:45:20;20.10;99.90
4695;DHT22;2361;49.540;8.390;2022-10-31T07:47:49;20.60;99.90
4695;DHT22;2361;49.540;8.390;2022-10-31T07:50:28;21.30;99.90
4695;DHT22;2361;49.540;8.390;2022-10-31T07:53:14;21.70;99.90
4695;DHT22;2361;49.540;8.390;2022-10-31T07:55:42;22.20;99.90
4695;DHT22;2361;49.540;8.390;2022-10-31T07:58:15;22.50;99.90
4695;DHT22;2361;49.540;8.390;2022-10-31T08:00:44;22.80;99.90
4695;DHT22;2361;49.540;8.390;2022-10-31T08:03:14;23.00;99.90
4695;DHT22;2361;49.540;8.390;2022-10-31T08:05:43;23.40;99.90
4695;DHT22;2361;49.540;8.390;2022-10-31T08:08:14;23.90;99.90
4695;DHT22;2361;49.540;8.390;2022-10-31T08:10:41;24.50;99.90
4695;DHT22;2361;49.540;8.390;2022-10-31T08:13:13;25.00;99.90
4695;DHT22;2361;49.540;8.390;2022-10-31T08:15:41;25.40;99.20
4695;DHT22;2361;49.540;8.390;2022-10-31T08:18:14;25.80;98.10
4695;DHT22;2361;49.540;8.390;2022-10-31T08:20:42;26.10;97.10
4695;DHT22;2361;49.540;8.390;2022-10-31T08:23:11;26.40;95.90
4695;DHT22;2361;49.540;8.390;2022-10-31T08:25:39;26.60;95.10
4695;DHT22;2361;49.540;8.390;2022-10-31T08:28:07;27.10;94.10
4695;DHT22;2361;49.540;8.390;2022-10-31T08:30:38;27.50;92.90
4695;DHT22;2361;49.540;8.390;2022-10-31T08:33:11;27.80;92.10
4695;DHT22;2361;49.540;8.390;2022-10-31T08:35:40;27.70;91.70
4695;DHT22;2361;49.540;8.390;2022-10-31T08:38:09;27.70;91.20
4695;DHT22;2361;49.540;8.390;2022-10-31T08:40:37;27.70;91.10
4695;DHT22;2361;49.540;8.390;2022-10-31T08:43:07;27.80;90.50
4695;DHT22;2361;49.540;8.390;2022-10-31T08:45:37;27.70;90.00
4695;DHT22;2361;49.540;8.390;2022-10-31T08:48:06;27.20;90.40
4695;DHT22;2361;49.540;8.390;2022-10-31T08:50:39;26.60;91.20
4695;DHT22;2361;49.540;8.390;2022-10-31T08:53:11;26.20;91.90
4695;DHT22;2361;49.540;8.390;2022-10-31T08:55:40;26.00;92.50
4695;DHT22;2361;49.540;8.390;2022-10-31T08:58:12;25.80;92.50
4695;DHT22;2361;49.540;8.390;2022-10-31T09:00:40;25.70;93.30
4695;DHT22;2361;49.540;8.390;2022-10-31T09:03:17;25.60;93.70
4695;DHT22;2361;49.540;8.390;2022-10-31T09:05:45;25.40;93.70
4695;DHT22;2361;49.540;8.390;2022-10-31T09:08:13;25.40;93.80
4695;DHT22;2361;49.540;8.390;2022-10-31T09:10:42;25.30;94.00
4695;DHT22;2361;49.540;8.390;2022-10-31T09:13:20;25.10;94.50
4695;DHT22;2361;49.540;8.390;2022-10-31T09:15:50;24.60;95.20
4695;DHT22;2361;49.540;8.390;2022-10-31T09:18:21;24.00;96.30
4695;DHT22;2361;49.540;8.390;2022-10-31T09:20:49;23.60;97.50
4695;DHT22;2361;49.540;8.390;2022-10-31T09:23:21;23.10;98.80
4695;DHT22;2361;49.540;8.390;2022-10-31T09:25:51;22.80;99.70
4695;DHT22;2361;49.540;8.390;2022-10-31T09:28:21;22.40;99.90
4695;DHT22;2361;49.540;8.390;2022-10-31T09:30:51;22.40;99.90
4695;DHT22;2361;49.540;8.390;2022-10-31T09:33:19;22.50;99.90
4695;DHT22;2361;49.540;8.390;2022-10-31T09:35:47;22.60;99.90
4695;DHT22;2361;49.540;8.390;2022-10-31T09:38:17;22.70;99.90
4695;DHT22;2361;49.540;8.390;2022-10-31T09:52:28;21.90;99.90
4695;DHT22;2361;49.540;8.390;2022-10-31T09:55:08;21.80;99.90
4695;DHT22;2361;49.540;8.390;2022-10-31T09:57:47;21.80;99.90
4695;DHT22;2361;49.540;8.390;2022-10-31T10:00:18;21.70;99.90
4695;DHT22;2361;49.540;8.390;2022-10-31T10:02:56;21.80;99.90
4695;DHT22;2361;49.540;8.390;2022-10-31T10:05:41;22.00;99.90
4695;DHT22;2361;49.540;8.390;2022-10-31T10:08:20;22.00;99.90
4695;DHT22;2361;49.540;8.390;2022-10-31T10:10:55;22.10;99.90
4695;DHT22;2361;49.540;8.390;2022-10-31T10:16:54;22.50;99.90
4695;DHT22;2361;49.540;8.390;2022-10-31T10:25:25;22.70;99.90
4695;DHT22;2361;49.540;8.390;2022-10-31T10:28:14;22.40;99.90
4695;DHT22;2361;49.540;8.390;2022-10-31T10:31:16;21.90;99.90
4695;DHT22;2361;49.540;8.390;2022-10-31T10:33:56;21.50;99.90
4695;DHT22;2361;49.540;8.390;2022-10-31T10:36:50;21.30;99.90
4695;DHT22;2361;49.540;8.390;2022-10-31T10:39:23;21.00;99.90
4695;DHT22;2361;49.540;8.390;2022-10-31T10:41:52;20.80;99.90
4695;DHT22;2361;49.540;8.390;2022-10-31T10:44:40;20.70;99.90
4695;DHT22;2361;49.540;8.390;2022-10-31T10:47:44;20.60;99.90
4695;DHT22;2361;49.540;8.390;2022-10-31T10:50:24;20.40;99.90
4695;DHT22;2361;49.540;8.390;2022-10-31T10:56:44;20.30;99.90
4695;DHT22;2361;49.540;8.390;2022-10-31T10:59:35;20.20;99.90
4695;DHT22;2361;49.540;8.390;2022-10-31T11:02:03;20.10;99.90
4695;DHT22;2361;49.540;8.390;2022-10-31T11:04:57;20.10;99.90
4695;DHT22;2361;49.540;8.390;2022-10-31T11:07:36;20.10;99.90
4695;DHT22;2361;49.540;8.390;2022-10-31T11:10:05;20.00;99.90
4695;DHT22;2361;49.540;8.390;2022-10-31T11:12:40;20.00;99.90
4695;DHT22;2361;49.540;8.390;2022-10-31T11:15:38;19.90;99.90
4695;DHT22;2361;49.540;8.390;2022-10-31T11:18:29;19.90;99.90
4695;DHT22;2361;49.540;8.390;2022-10-31T11:21:00;19.90;99.90
4695;DHT22;2361;49.540;8.390;2022-10-31T11:23:30;19.90;99.90
4695;DHT22;2361;49.540;8.390;2022-10-31T11:26:00;19.90;99.90
4695;DHT22;2361;49.540;8.390;2022-10-31T11:28:30;19.90;99.90
4695;DHT22;2361;49.540;8.390;2022-10-31T11:31:08;19.90;99.90
4695;DHT22;2361;49.540;8.390;2022-10-31T11:33:46;19.70;99.90
4695;DHT22;2361;49.540;8.390;2022-10-31T11:36:34;19.70;99.90
4695;DHT22;2361;49.540;8.390;2022-10-31T11:39:12;19.70;99.90
4695;DHT22;2361;49.540;8.390;2022-10-31T11:41:46;19.70;99.90
4695;DHT22;2361;49.540;8.390;2022-10-31T11:44:20;19.70;99.90
4695;DHT22;2361;49.540;8.390;2022-10-31T11:46:57;19.70;99.90
4695;DHT22;2361;49.540;8.390;2022-10-31T11:52:05;19.70;99.90
4695;DHT22;2361;49.540;8.390;2022-10-31T11:54:41;19.60;99.90
4695;DHT22;2361;49.540;8.390;2022-10-31T11:57:41;19.50;99.90
4695;DHT22;2361;49.540;8.390;2022-10-31T12:00:25;19.50;99.90
4695;DHT22;2361;49.540;8.390;2022-10-31T12:05:55;19.40;99.90
4695;DHT22;2361;49.540;8.390;2022-10-31T12:08:32;19.40;99.90
4695;DHT22;2361;49.540;8.390;2022-10-31T12:14:25;19.40;99.90
4695;DHT22;2361;49.540;8.390;2022-10-31T12:17:23;19.40;99.90
4695;DHT22;2361;49.540;8.390;2022-10-31T12:26:14;19.40;99.90
4695;DHT22;2361;49.540;8.390;2022-10-31T12:37:29;19.40;99.90
4695;DHT22;2361;49.540;8.390;2022-10-31T12:46:25;19.30;99.90
4695;DHT22;2361;49.540;8.390;2022-10-31T12:49:26;19.30;99.90
4695;DHT22;2361;49.540;8.390;2022-10-31T12:58:03;19.40;99.90
4695;DHT22;2361;49.540;8.390;2022-10-31T13:00:38;19.40;99.90
4695;DHT22;2361;49.540;8.390;2022-10-31T13:03:48;19.40;99.90
4695;DHT22;2361;49.540;8.390;2022-10-31T13:06:32;19.40;99.90
4695;DHT22;2361;49.540;8.390;2022-10-31T13:09:11;19.30;99.90
4695;DHT22;2361;49.540;8.390;2022-10-31T13:11:58;19.20;99.90
4695;DHT22;2361;49.540;8.390;2022-10-31T13:14:42;19.10;99.90
4695;DHT22;2361;49.540;8.390;2022-10-31T13:17:26;19.10;99.90
4695;DHT22;2361;49.540;8.390;2022-10-31T13:22:51;19.00;99.90
4695;DHT22;2361;49.540;8.390;2022-10-31T13:25:31;19.00;99.90
4695;DHT22;2361;49.540;8.390;2022-10-31T13:28:09;19.00;99.90
4695;DHT22;2361;49.540;8.390;2022-10-31T13:30:42;18.90;99.90
4695;DHT22;2361;49.540;8.390;2022-10-31T13:42:57;18.80;99.90
4695;DHT22;2361;49.540;8.390;2022-10-31T13:45:28;18.80;99.90
4695;DHT22;2361;49.540;8.390;2022-10-31T13:50:33;18.90;99.90
4695;DHT22;2361;49.540;8.390;2022-10-31T13:53:43;19.00;99.90
4695;DHT22;2361;49.540;8.390;2022-10-31T13:56:15;19.10;99.90
4695;DHT22;2361;49.540;8.390;2022-10-31T14:01:37;19.20;99.90
4695;DHT22;2361;49.540;8.390;2022-10-31T14:07:16;19.20;99.90
4695;DHT22;2361;49.540;8.390;2022-10-31T14:10:00;19.10;99.90
4695;DHT22;2361;49.540;8.390;2022-10-31T14:12:47;19.10;99.90
4695;DHT22;2361;49.540;8.390;2022-10-31T14:15:22;19.00;99.90
4695;DHT22;2361;49.540;8.390;2022-10-31T14:20:40;19.00;99.90
4695;DHT22;2361;49.540;8.390;2022-10-31T14:31:51;19.00;99.90
4695;DHT22;2361;49.540;8.390;2022-10-31T14:34:36;18.80;99.90
4695;DHT22;2361;49.540;8.390;2022-10-31T14:37:14;18.70;99.90
4695;DHT22;2361;49.540;8.390;2022-10-31T14:45:45;18.50;99.90
4695;DHT22;2361;49.540;8.390;2022-10-31T14:51:20;18.30;99.90
4695;DHT22;2361;49.540;8.390;2022-10-31T14:53:56;18.30;99.90
4695;DHT22;2361;49.540;8.390;2022-10-31T14:58:55;18.20;99.90
4695;DHT22;2361;49.540;8.390;2022-10-31T15:01:24;18.20;99.90
4695;DHT22;2361;49.540;8.390;2022-10-31T15:03:52;18.10;99.90
4695;DHT22;2361;49.540;8.390;2022-10-31T15:06:44;18.10;99.90
4695;DHT22;2361;49.540;8.390;2022-10-31T15:09:26;18.10;99.90
4695;DHT22;2361;49.540;8.390;2022-10-31T15:11:58;18.10;99.90
4695;DHT22;2361;49.540;8.390;2022-10-31T15:14:31;18.00;99.90
4695;DHT22;2361;49.540;8.390;2022-10-31T15:16:59;18.10;99.90
4695;DHT22;2361;49.540;8.390;2022-10-31T15:19:30;18.00;99.90
4695;DHT22;2361;49.540;8.390;2022-10-31T15:22:00;18.00;99.90
4695;DHT22;2361;49.540;8.390;2022-10-31T15:24:34;18.00;99.90
4695;DHT22;2361;49.540;8.390;2022-10-31T15:27:03;18.00;99.90
4695;DHT22;2361;49.540;8.390;2022-10-31T15:29:31;17.90;99.90
4695;DHT22;2361;49.540;8.390;2022-10-31T15:32:18;17.90;99.90
4695;DHT22;2361;49.540;8.390;2022-10-31T15:34:50;17.90;99.90
4695;DHT22;2361;49.540;8.390;2022-10-31T15:37:20;17.80;99.90
4695;DHT22;2361;49.540;8.390;2022-10-31T15:39:49;17.80;99.90
4695;DHT22;2361;49.540;8.390;2022-10-31T15:42:29;17.80;99.90
4695;DHT22;2361;49.540;8.390;2022-10-31T15:47:36;17.70;99.90
4695;DHT22;2361;49.540;8.390;2022-10-31T15:50:06;17.70;99.90
4695;DHT22;2361;49.540;8.390;2022-10-31T15:52:49;17.70;99.90
4695;DHT22;2361;49.540;8.390;2022-10-31T15:55:21;17.70;99.90
4695;DHT22;2361;49.540;8.390;2022-10-31T15:58:09;17.60;99.90
4695;DHT22;2361;49.540;8.390;2022-10-31T16:00:38;17.50;99.90
4695;DHT22;2361;49.540;8.390;2022-10-31T16:05:52;17.30;99.90
4695;DHT22;2361;49.540;8.390;2022-10-31T16:10:53;17.20;99.90
4695;DHT22;2361;49.540;8.390;2022-10-31T16:13:26;17.20;99.90
4695;DHT22;2361;49.540;8.390;2022-10-31T16:15:59;17.10;99.90
4695;DHT22;2361;49.540;8.390;2022-10-31T16:18:48;17.10;99.90
4695;DHT22;2361;49.540;8.390;2022-10-31T16:21:22;17.10;99.90
4695;DHT22;2361;49.540;8.390;2022-10-31T16:23:54;17.00;99.90
4695;DHT22;2361;49.540;8.390;2022-10-31T16:26:24;17.00;99.90
4695;DHT22;2361;49.540;8.390;2022-10-31T16:28:53;17.00;99.90
4695;DHT22;2361;49.540;8.390;2022-10-31T16:31:36;16.90;99.90
4695;DHT22;2361;49.540;8.390;2022-10-31T16:34:17;16.90;99.90
4695;DHT22;2361;49.540;8.390;2022-10-31T16:36:51;16.90;99.90
4695;DHT22;2361;49.540;8.390;2022-10-31T16:39:18;16.90;99.90
4695;DHT22;2361;49.540;8.390;2022-10-31T16:41:48;16.90;99.90
4695;DHT22;2361;49.540;8.390;2022-10-31T16:44:22;16.90;99.90
4695;DHT22;2361;49.540;8.390;2022-10-31T16:49:43;16.80;99.90
4695;DHT22;2361;49.540;8.390;2022-10-31T16:52:12;16.90;99.90
4695;DHT22;2361;49.540;8.390;2022-10-31T16:54:39;16.80;99.90
4695;DHT22;2361;49.540;8.390;2022-10-31T16:57:12;16.80;99.90
4695;DHT22;2361;49.540;8.390;2022-10-31T16:59:41;16.90;99.90
4695;DHT22;2361;49.540;8.390;2022-10-31T17:02:14;16.90;99.90
4695;DHT22;2361;49.540;8.390;2022-10-31T17:04:42;16.80;99.90
4695;DHT22;2361;49.540;8.390;2022-10-31T17:07:10;16.80;99.90
4695;DHT22;2361;49.540;8.390;2022-10-31T17:09:37;16.80;99.90
4695;DHT22;2361;49.540;8.390;2022-10-31T17:12:05;16.80;99.90
4695;DHT22;2361;49.540;8.390;2022-10-31T17:14:33;16.80;99.90
4695;DHT22;2361;49.540;8.390;2022-10-31T17:17:00;16.80;99.90
4695;DHT22;2361;49.540;8.390;2022-10-31T17:19:27;16.70;99.90
4695;DHT22;2361;49.540;8.390;2022-10-31T17:21:54;16.60;99.90
4695;DHT22;2361;49.540;8.390;2022-10-31T17:24:21;16.60;99.90
4695;DHT22;2361;49.540;8.390;2022-10-31T17:26:48;16.60;99.90
4695;DHT22;2361;49.540;8.390;2022-10-31T17:29:15;16.50;99.90
4695;DHT22;2361;49.540;8.390;2022-10-31T17:31:43;16.50;99.90
4695;DHT22;2361;49.540;8.390;2022-10-31T17:34:10;16.50;99.90
4695;DHT22;2361;49.540;8.390;2022-10-31T17:36:37;16.40;99.90
4695;DHT22;2361;49.540;8.390;2022-10-31T17:39:04;16.40;99.90
4695;DHT22;2361;49.540;8.390;2022-10-31T17:41:32;16.30;99.90
4695;DHT22;2361;49.540;8.390;2022-10-31T17:43:59;16.30;99.90
4695;DHT22;2361;49.540;8.390;2022-10-31T17:46:26;16.30;99.90
4695;DHT22;2361;49.540;8.390;2022-10-31T17:48:54;16.20;99.90
4695;DHT22;2361;49.540;8.390;2022-10-31T17:51:21;16.20;99.90
4695;DHT22;2361;49.540;8.390;2022-10-31T17:53:48;16.10;99.90
4695;DHT22;2361;49.540;8.390;2022-10-31T17:56:15;16.10;99.90
4695;DHT22;2361;49.540;8.390;2022-10-31T17:58:42;16.10;99.90
4695;DHT22;2361;49.540;8.390;2022-10-31T18:01:12;16.10;99.90
4695;DHT22;2361;49.540;8.390;2022-10-31T18:03:40;16.10;99.90
4695;DHT22;2361;49.540;8.390;2022-10-31T18:06:08;16.10;99.90
4695;DHT22;2361;49.540;8.390;2022-10-31T18:08:38;16.00;99.90
4695;DHT22;2361;49.540;8.390;2022-10-31T18:11:16;16.00;99.90
4695;DHT22;2361;49.540;8.390;2022-10-31T18:13:46;16.00;99.90
4695;DHT22;2361;49.540;8.390;2022-10-31T18:16:15;15.90;99.90
4695;DHT22;2361;49.540;8.390;2022-10-31T18:18:52;15.90;99.90
4695;DHT22;2361;49.540;8.390;2022-10-31T18:21:20;15.90;99.90
4695;DHT22;2361;49.540;8.390;2022-10-31T18:23:47;15.90;99.90
4695;DHT22;2361;49.540;8.390;2022-10-31T18:26:14;15.90;99.90
4695;DHT22;2361;49.540;8.390;2022-10-31T18:28:41;15.90;99.90
4695;DHT22;2361;49.540;8.390;2022-10-31T18:31:07;15.90;99.90
4695;DHT22;2361;49.540;8.390;2022-10-31T18:33:34;15.80;99.90
4695;DHT22;2361;49.540;8.390;2022-10-31T18:36:06;15.80;99.90
4695;DHT22;2361;49.540;8.390;2022-10-31T18:38:39;15.70;99.90
4695;DHT22;2361;49.540;8.390;2022-10-31T18:41:09;15.70;99.90
4695;DHT22;2361;49.540;8.390;2022-10-31T18:43:37;15.70;99.90
4695;DHT22;2361;49.540;8.390;2022-10-31T18:46:06;15.70;99.90
4695;DHT22;2361;49.540;8.390;2022-10-31T18:48:35;15.70;99.90
4695;DHT22;2361;49.540;8.390;2022-10-31T18:51:06;15.60;99.90
4695;DHT22;2361;49.540;8.390;2022-10-31T18:53:34;15.60;99.90
4695;DHT22;2361;49.540;8.390;2022-10-31T18:56:06;15.60;99.90
4695;DHT22;2361;49.540;8.390;2022-10-31T18:58:34;15.60;99.90
4695;DHT22;2361;49.540;8.390;2022-10-31T19:01:09;15.60;99.90
4695;DHT22;2361;49.540;8.390;2022-10-31T19:03:37;15.60;99.90
4695;DHT22;2361;49.540;8.390;2022-10-31T19:06:05;15.60;99.90
4695;DHT22;2361;49.540;8.390;2022-10-31T19:08:33;15.60;99.90
4695;DHT22;2361;49.540;8.390;2022-10-31T19:11:07;15.60;99.90
4695;DHT22;2361;49.540;8.390;2022-10-31T19:13:36;15.60;99.90